createdAt,value
2023-02-09T00:01:34.854Z,49.38
2023-02-09T00:04:39.238Z,50.13
2023-02-09T00:07:43.718Z,50.84
2023-02-09T00:10:48.333Z,49.49
2023-02-09T00:13:54.427Z,48.12
2023-02-09T00:17:05.557Z,46.91
2023-02-09T00:20:10.519Z,46.21
2023-02-09T00:23:14.612Z,44.69
2023-02-09T00:26:18.940Z,44.19
2023-02-09T00:29:24.911Z,43.71
2023-02-09T00:32:29.394Z,43.68
2023-02-09T00:35:33.828Z,44.83
2023-02-09T00:38:38.370Z,43.82
2023-02-09T00:42:00.999Z,43.51
2023-02-09T00:45:06.017Z,43.01
2023-02-09T00:48:10.729Z,43.23
2023-02-09T00:51:15.039Z,40.92
2023-02-09T00:54:19.547Z,40.18
2023-02-09T00:57:23.690Z,41.54
2023-02-09T01:00:28.020Z,38.28
2023-02-09T01:03:34.090Z,37.26
2023-02-09T01:06:38.577Z,38.77
2023-02-09T01:09:44.281Z,38.29
2023-02-09T01:12:49.094Z,36.38
2023-02-09T01:15:53.514Z,35.95
2023-02-09T01:19:00.543Z,35.80
2023-02-09T01:22:06.837Z,36.34
2023-02-09T01:25:11.337Z,34.24
2023-02-09T01:28:16.347Z,34.18
2023-02-09T01:31:27.351Z,33.43
2023-02-09T01:34:31.985Z,34.41
2023-02-09T01:37:37.059Z,35.06
2023-02-09T01:40:41.692Z,34.15
2023-02-09T01:44:01.419Z,34.72
2023-02-09T01:47:06.095Z,34.70
2023-02-09T01:50:11.020Z,31.91
2023-02-09T01:57:29.503Z,31.63
2023-02-09T02:00:36.910Z,32.07
2023-02-09T02:03:47.274Z,32.31
2023-02-09T02:06:58.863Z,33.20
2023-02-09T02:10:04.185Z,31.11
2023-02-09T02:13:11.250Z,34.37
2023-02-09T02:16:36.904Z,33.53
2023-02-09T02:20:01.569Z,32.58
2023-02-09T02:23:17.462Z,34.10
2023-02-09T02:26:30.950Z,31.26
2023-02-09T02:30:00.337Z,35.09
2023-02-09T02:33:23.191Z,33.59
2023-02-09T02:36:36.206Z,34.04
2023-02-09T02:40:00.672Z,34.90
2023-02-09T02:43:19.697Z,34.71
2023-02-09T02:46:32.456Z,30.97
2023-02-09T02:49:45.517Z,35.08
2023-02-09T02:52:53.775Z,35.54
2023-02-09T02:56:07.406Z,34.51
2023-02-09T02:59:18.413Z,34.27
2023-02-09T03:02:27.647Z,33.83
2023-02-09T03:05:33.635Z,34.84
2023-02-09T03:08:49.777Z,35.40
2023-02-09T03:11:57.011Z,34.58
2023-02-09T03:15:07.240Z,35.43
2023-02-09T03:18:17.575Z,34.61
2023-02-09T03:21:43.557Z,36.33
2023-02-09T03:25:12.169Z,35.31
2023-02-09T03:28:23.708Z,32.59
2023-02-09T03:31:29.652Z,35.01
2023-02-09T03:34:34.344Z,34.25
2023-02-09T03:37:38.338Z,35.91
2023-02-09T03:40:42.568Z,34.79
2023-02-09T03:44:05.675Z,34.86
2023-02-09T03:47:11.372Z,34.96
2023-02-09T03:50:15.386Z,34.38
2023-02-09T03:53:19.755Z,35.10
2023-02-09T04:00:02.600Z,34.77
2023-02-09T04:03:16.194Z,35.34
2023-02-09T04:06:20.089Z,34.31
2023-02-09T04:09:24.715Z,34.01
2023-02-09T04:12:29.107Z,35.74
2023-02-09T04:15:33.543Z,34.31
2023-02-09T04:18:39.596Z,35.08
2023-02-09T04:21:44.102Z,33.74
2023-02-09T04:24:49.835Z,34.24
2023-02-09T04:27:53.761Z,33.18
2023-02-09T04:31:00.444Z,35.71
2023-02-09T04:34:04.918Z,34.50
2023-02-09T04:37:09.213Z,35.60
2023-02-09T04:40:13.920Z,35.85
2023-02-09T04:43:19.309Z,35.00
2023-02-09T04:46:23.606Z,34.33
2023-02-09T04:49:28.052Z,35.64
2023-02-09T04:52:32.426Z,35.98
2023-02-09T04:55:41.245Z,34.69
2023-02-09T05:02:30.555Z,35.25
2023-02-09T05:05:34.486Z,35.25
2023-02-09T05:08:38.764Z,35.13
2023-02-09T05:11:45.323Z,35.87
2023-02-09T05:14:49.777Z,35.33
2023-02-09T05:17:54.211Z,36.00
2023-02-09T05:20:58.393Z,36.14
2023-02-09T05:24:02.480Z,35.26
2023-02-09T05:27:06.875Z,35.80
2023-02-09T05:30:12.497Z,34.54
2023-02-09T05:33:16.908Z,34.97
2023-02-09T05:36:20.907Z,35.17
2023-02-09T05:39:25.312Z,35.35
2023-02-09T05:42:29.518Z,35.93
2023-02-09T05:45:33.392Z,35.95
2023-02-09T05:48:37.615Z,35.32
2023-02-09T05:51:42.076Z,35.42
2023-02-09T05:54:48.789Z,35.57
2023-02-09T05:57:53.108Z,35.17
2023-02-09T06:00:57.161Z,36.01
2023-02-09T06:04:01.400Z,36.28
2023-02-09T06:07:05.875Z,36.66
2023-02-09T06:10:10.782Z,35.42
2023-02-09T06:13:16.303Z,34.90
2023-02-09T06:16:20.692Z,32.88
2023-02-09T06:19:25.586Z,35.47
2023-02-09T06:22:32.473Z,35.07
2023-02-09T06:25:36.586Z,36.78
2023-02-09T06:28:41.025Z,35.26
2023-02-09T06:31:45.413Z,35.45
2023-02-09T06:34:49.547Z,35.78
2023-02-09T06:37:57.350Z,35.90
2023-02-09T06:41:01.985Z,33.45
2023-02-09T06:44:07.043Z,35.64
2023-02-09T06:47:11.447Z,35.49
2023-02-09T06:50:18.030Z,34.75
2023-02-09T06:53:22.350Z,35.64
2023-02-09T06:56:26.886Z,34.98
2023-02-09T06:59:31.526Z,34.16
2023-02-09T07:02:36.472Z,34.81
2023-02-09T07:05:40.774Z,35.52
2023-02-09T07:08:45.730Z,35.45
2023-02-09T07:11:50.256Z,35.30
2023-02-09T07:14:54.355Z,35.51
2023-02-09T07:17:59.488Z,35.15
2023-02-09T07:21:10.179Z,36.52
2023-02-09T07:24:14.180Z,35.89
2023-02-09T07:27:20.021Z,36.07
2023-02-09T07:30:24.226Z,34.64
2023-02-09T07:33:28.174Z,35.31
2023-02-09T07:36:32.761Z,35.51
2023-02-09T07:39:37.726Z,35.35
2023-02-09T07:42:41.816Z,35.42
2023-02-09T07:45:45.869Z,35.56
2023-02-09T07:48:51.077Z,36.13
2023-02-09T07:51:55.512Z,36.30
2023-02-09T07:55:01.755Z,35.76
2023-02-09T07:58:06.608Z,35.72
2023-02-09T08:01:13.402Z,35.25
2023-02-09T08:04:17.776Z,36.17
2023-02-09T08:07:23.939Z,35.86
2023-02-09T08:10:30.198Z,36.37
2023-02-09T08:13:38.940Z,36.03
2023-02-09T08:16:43.729Z,36.48
2023-02-09T08:19:52.248Z,36.34
2023-02-09T08:23:01.191Z,37.25
2023-02-09T08:26:09.934Z,37.79
2023-02-09T08:29:14.512Z,38.04
2023-02-09T08:32:19.119Z,38.03
2023-02-09T08:35:23.490Z,38.23
2023-02-09T08:38:28.026Z,37.88
2023-02-09T08:41:32.318Z,38.33
2023-02-09T08:44:36.315Z,38.28
2023-02-09T08:47:40.573Z,39.54
2023-02-09T08:50:45.041Z,40.01
2023-02-09T08:53:52.796Z,40.05
2023-02-09T08:56:57.417Z,40.65
2023-02-09T09:00:02.082Z,41.36
2023-02-09T09:03:08.607Z,41.06
2023-02-09T09:06:13.493Z,40.10
2023-02-09T09:09:18.232Z,38.98
2023-02-09T09:12:22.770Z,39.41
2023-02-09T09:15:29.702Z,40.41
2023-02-09T09:18:34.333Z,41.81
2023-02-09T09:21:38.685Z,42.02
2023-02-09T09:24:43.294Z,41.10
2023-02-09T09:27:47.346Z,41.84
2023-02-09T09:30:51.206Z,42.53
2023-02-09T09:33:56.820Z,42.28
2023-02-09T09:37:03.078Z,43.23
2023-02-09T09:40:08.409Z,43.70
2023-02-09T09:43:34.294Z,43.77
2023-02-09T09:46:42.470Z,44.38
2023-02-09T09:49:48.337Z,44.79
2023-02-09T09:52:59.806Z,44.86
2023-02-09T09:56:08.376Z,44.42
2023-02-09T09:59:22.531Z,44.79
2023-02-09T10:02:27.395Z,45.04
2023-02-09T10:05:38.972Z,45.13
2023-02-09T10:08:55.548Z,45.04
2023-02-09T10:12:44.583Z,45.50
2023-02-09T10:15:59.728Z,45.96
2023-02-09T10:19:18.950Z,45.87
2023-02-09T10:22:23.450Z,45.07
2023-02-09T10:25:57.747Z,43.58
2023-02-09T10:29:26.029Z,44.32
2023-02-09T10:32:44.535Z,45.04
2023-02-09T10:36:09.002Z,45.73
2023-02-09T10:39:20.966Z,45.35
2023-02-09T10:42:39.342Z,46.81
2023-02-09T10:45:49.980Z,47.05
2023-02-09T10:48:53.988Z,46.54
2023-02-09T10:52:22.949Z,45.62
2023-02-09T10:55:39.923Z,46.06
2023-02-09T10:58:53.878Z,46.13
2023-02-09T11:02:03.036Z,46.09
2023-02-09T11:05:23.148Z,46.69
2023-02-09T11:08:54.386Z,45.92
2023-02-09T11:12:00.042Z,46.36
2023-02-09T11:15:07.575Z,46.62
2023-02-09T11:18:30.146Z,45.79
2023-02-09T11:21:56.005Z,45.92
2023-02-09T11:25:15.919Z,46.09
2023-02-09T11:28:43.126Z,46.40
2023-02-09T11:32:02.836Z,46.39
2023-02-09T11:35:13.062Z,45.21
2023-02-09T11:38:21.947Z,45.14
2023-02-09T11:41:52.368Z,44.23
2023-02-09T11:45:03.150Z,44.61
2023-02-09T11:48:27.654Z,44.65
2023-02-09T11:51:40.438Z,46.16
2023-02-09T11:54:48.918Z,48.01
2023-02-09T11:58:03.717Z,47.20
2023-02-09T12:01:35.415Z,47.24
2023-02-09T12:04:43.894Z,48.04
2023-02-09T12:08:10.229Z,49.17
2023-02-09T12:11:53.480Z,51.12
2023-02-09T12:15:21.133Z,50.25
2023-02-09T12:18:29.102Z,50.04
2023-02-09T12:21:39.271Z,48.94
2023-02-09T12:25:03.883Z,49.00
2023-02-09T12:28:11.391Z,48.46
2023-02-09T12:31:28.078Z,47.77
2023-02-09T12:34:45.496Z,48.29
2023-02-09T12:38:18.015Z,48.94
2023-02-09T12:41:32.840Z,48.79
2023-02-09T12:44:39.306Z,48.22
2023-02-09T12:47:46.834Z,48.52
2023-02-09T12:50:54.965Z,48.31
2023-02-09T12:53:59.421Z,48.35
2023-02-09T12:57:21.534Z,48.49
2023-02-09T13:00:34.655Z,46.74
2023-02-09T13:03:54.983Z,46.30
2023-02-09T13:07:00.151Z,47.05
2023-02-09T13:10:26.268Z,49.25
2023-02-09T13:13:36.409Z,49.04
2023-02-09T13:17:22.625Z,49.98
2023-02-09T13:20:42.542Z,50.55
2023-02-09T13:24:04.557Z,50.68
2023-02-09T13:27:35.177Z,50.32
2023-02-09T13:30:51.544Z,50.17
2023-02-09T13:34:07.739Z,49.19
2023-02-09T13:37:25.005Z,48.39
2023-02-09T13:40:31.228Z,48.91
2023-02-09T13:43:39.627Z,48.96
2023-02-09T13:46:54.182Z,49.93
2023-02-09T13:50:05.469Z,50.33
2023-02-09T13:53:11.854Z,51.53
2023-02-09T13:56:17.031Z,50.84
2023-02-09T13:59:21.617Z,49.06
2023-02-09T14:02:28.194Z,48.52
2023-02-09T14:05:39.366Z,48.26
2023-02-09T14:08:44.036Z,50.41
2023-02-09T14:11:55.584Z,50.93
2023-02-09T14:15:18.698Z,50.06
2023-02-09T14:18:44.010Z,49.80
2023-02-09T14:21:51.027Z,49.38
2023-02-09T14:24:55.518Z,48.15
2023-02-09T14:28:00.201Z,47.52
2023-02-09T14:31:04.413Z,48.94
2023-02-09T14:34:22.953Z,48.56
2023-02-09T14:37:31.664Z,48.46
2023-02-09T14:40:38.008Z,48.88
2023-02-09T14:43:42.283Z,49.13
2023-02-09T14:46:55.584Z,48.65
2023-02-09T14:50:00.799Z,49.31
2023-02-09T14:53:12.733Z,50.16
2023-02-09T14:56:31.610Z,51.45
2023-02-09T14:59:35.931Z,52.99
2023-02-09T15:02:40.518Z,53.70
2023-02-09T15:05:45.492Z,53.15
2023-02-09T15:08:49.234Z,52.68
2023-02-09T15:12:05.872Z,53.75
2023-02-09T15:15:18.479Z,52.71
2023-02-09T15:18:25.754Z,54.09
2023-02-09T15:21:32.906Z,54.83
2023-02-09T15:24:37.747Z,54.09
2023-02-09T15:27:53.354Z,52.61
2023-02-09T15:31:16.113Z,51.74
2023-02-09T15:34:23.246Z,50.58
2023-02-09T15:37:38.757Z,50.91
2023-02-09T15:41:03.393Z,51.27
2023-02-09T15:44:42.036Z,52.07
2023-02-09T15:47:49.703Z,52.06
2023-02-09T15:50:54.239Z,51.44
2023-02-09T15:54:03.069Z,51.02
2023-02-09T15:57:07.312Z,51.61
2023-02-09T16:00:37.724Z,51.76
2023-02-09T16:03:42.577Z,52.53
2023-02-09T16:06:51.011Z,51.57
2023-02-09T16:09:55.397Z,50.94
2023-02-09T16:13:02.006Z,51.81
2023-02-09T16:16:16.966Z,52.58
2023-02-09T16:19:26.332Z,51.34
2023-02-09T16:22:30.549Z,50.58
2023-02-09T16:25:37.136Z,50.36
2023-02-09T16:28:44.081Z,50.90
2023-02-09T16:31:49.695Z,50.60
2023-02-09T16:34:55.034Z,50.86
2023-02-09T16:38:02.450Z,51.23
2023-02-09T16:41:27.011Z,51.00
2023-02-09T16:44:34.160Z,51.49
2023-02-09T16:47:38.571Z,52.08
2023-02-09T16:50:46.236Z,52.57
2023-02-09T16:53:52.781Z,52.43
2023-02-09T16:56:57.489Z,51.98
2023-02-09T17:00:02.045Z,52.85
2023-02-09T17:03:45.189Z,54.06
2023-02-09T17:06:53.640Z,54.75
2023-02-09T17:09:58.278Z,55.38
2023-02-09T17:13:05.181Z,54.90
2023-02-09T17:16:34.939Z,54.97
2023-02-09T17:19:47.956Z,55.39
2023-02-09T17:22:55.101Z,55.03
2023-02-09T17:26:00.242Z,55.52
2023-02-09T17:29:04.459Z,56.05
2023-02-09T17:32:12.115Z,55.54
2023-02-09T17:35:29.065Z,55.71
2023-02-09T17:38:45.102Z,55.23
2023-02-09T17:41:50.776Z,55.42
2023-02-09T17:44:57.375Z,54.44
2023-02-09T17:48:03.288Z,53.78
2023-02-09T17:51:10.472Z,54.70
2023-02-09T17:54:17.267Z,54.88
2023-02-09T17:57:22.364Z,55.70
2023-02-09T18:00:28.680Z,55.46
2023-02-09T18:03:33.044Z,55.52
2023-02-09T18:06:41.764Z,55.22
2023-02-09T18:09:46.250Z,55.02
2023-02-09T18:12:50.944Z,55.72
2023-02-09T18:15:56.048Z,56.13
2023-02-09T18:19:00.614Z,55.85
2023-02-09T18:22:05.305Z,55.16
2023-02-09T18:25:20.644Z,54.99
2023-02-09T18:28:25.441Z,56.46
2023-02-09T18:31:29.803Z,55.69
2023-02-09T18:34:34.219Z,55.04
2023-02-09T18:37:39.099Z,53.33
2023-02-09T18:40:43.103Z,52.03
2023-02-09T18:43:47.358Z,50.54
2023-02-09T18:46:52.861Z,51.63
2023-02-09T18:49:57.776Z,52.36
2023-02-09T18:53:03.867Z,55.19
2023-02-09T18:56:15.138Z,53.37
2023-02-09T18:59:19.584Z,53.00
2023-02-09T19:02:24.539Z,51.76
2023-02-09T19:05:33.522Z,52.37
2023-02-09T19:08:39.750Z,52.25
2023-02-09T19:11:44.185Z,53.17
2023-02-09T19:14:49.799Z,54.08
2023-02-09T19:17:56.685Z,54.45
2023-02-09T19:21:05.797Z,52.77
2023-02-09T19:24:09.829Z,54.07
2023-02-09T19:27:17.627Z,53.48
2023-02-09T19:30:27.424Z,54.26
2023-02-09T19:33:31.849Z,53.35
2023-02-09T19:36:35.919Z,52.97
2023-02-09T19:40:11.334Z,54.44
2023-02-09T19:43:16.804Z,53.74
2023-02-09T19:46:21.323Z,53.53
2023-02-09T19:49:39.890Z,49.94
2023-02-09T19:52:46.393Z,48.46
2023-02-09T19:55:52.310Z,48.07
2023-02-09T19:58:59.202Z,48.49
2023-02-09T20:02:03.786Z,48.78
2023-02-09T20:05:09.001Z,48.75
2023-02-09T20:08:16.874Z,47.64
2023-02-09T20:11:22.260Z,46.65
2023-02-09T20:14:31.454Z,47.12
2023-02-09T20:17:37.428Z,46.32
2023-02-09T20:20:44.480Z,46.54
2023-02-09T20:23:58.905Z,46.59
2023-02-09T20:27:08.581Z,47.05
2023-02-09T20:30:13.738Z,46.88
2023-02-09T20:33:24.878Z,47.58
2023-02-09T20:36:39.062Z,47.83
2023-02-09T20:39:45.228Z,47.85
2023-02-09T20:43:07.730Z,46.98
2023-02-09T20:47:01.127Z,48.02
2023-02-09T20:50:06.088Z,47.31
2023-02-09T20:53:10.310Z,47.72
2023-02-09T20:56:14.591Z,47.24
2023-02-09T20:59:19.132Z,46.41
2023-02-09T21:02:23.640Z,46.72
2023-02-09T21:05:28.286Z,47.42
2023-02-09T21:08:32.602Z,46.93
2023-02-09T21:11:36.974Z,46.47
2023-02-09T21:14:43.657Z,47.79
2023-02-09T21:17:52.489Z,49.20
2023-02-09T21:20:56.715Z,49.86
2023-02-09T21:24:01.450Z,50.29
2023-02-09T21:27:07.417Z,50.42
2023-02-09T21:30:12.728Z,51.27
2023-02-09T21:33:17.423Z,50.90
2023-02-09T21:36:21.507Z,51.38
2023-02-09T21:39:25.811Z,51.27
2023-02-09T21:42:32.028Z,50.79
2023-02-09T21:45:48.881Z,53.02
2023-02-09T21:48:54.511Z,52.92
2023-02-09T21:52:00.114Z,52.35
2023-02-09T21:55:05.549Z,51.71
2023-02-09T21:58:09.933Z,51.73
2023-02-09T22:01:14.613Z,51.97
2023-02-09T22:04:18.963Z,51.74
2023-02-09T22:07:23.385Z,51.19
2023-02-09T22:10:28.017Z,52.35
2023-02-09T22:13:33.084Z,52.72
2023-02-09T22:16:36.883Z,52.47
2023-02-09T22:19:41.145Z,52.21
2023-02-09T22:22:47.860Z,51.61
2023-02-09T22:25:52.303Z,51.85
2023-02-09T22:28:56.605Z,51.91
2023-02-09T22:32:01.041Z,52.32
2023-02-09T22:35:05.303Z,52.68
2023-02-09T22:38:09.487Z,52.17
2023-02-09T22:41:24.802Z,52.29
2023-02-09T22:44:30.918Z,51.88
2023-02-09T22:47:35.655Z,53.42
2023-02-09T22:50:44.932Z,52.53
2023-02-09T22:53:49.723Z,53.10
2023-02-09T22:56:54.051Z,52.76
2023-02-09T23:00:01.108Z,52.58
2023-02-09T23:03:08.098Z,52.64
2023-02-09T23:06:16.655Z,52.83
2023-02-09T23:09:21.107Z,52.40
2023-02-09T23:12:25.261Z,51.63
2023-02-09T23:15:29.652Z,51.57
2023-02-09T23:18:34.008Z,51.81
2023-02-09T23:21:41.685Z,50.77
2023-02-09T23:24:46.044Z,48.98
2023-02-09T23:27:50.543Z,46.89
2023-02-09T23:30:54.439Z,46.22
2023-02-09T23:33:58.941Z,45.77
2023-02-09T23:37:13.580Z,45.56
2023-02-09T23:40:33.183Z,44.16
2023-02-09T23:43:40.863Z,43.74
2023-02-09T23:46:45.741Z,43.15
2023-02-09T23:49:51.484Z,43.09
2023-02-09T23:52:56.016Z,43.06
2023-02-09T23:56:08.486Z,43.39
2023-02-09T23:59:15.891Z,43.08
